KTRM/TRM METAR and TAF weather

Enter ICAO airport designator
Station Type Date Time Source
KTRM METAR 2021/06/22 22:52 UTC NOAA

KTRM 222252Z AUTO 00000KT 10SM FEW110 37/14 A2974 RMK AO2 SLP075 T03720144


Station Type Date Time Source
KTRM Decoded METAR 2021/06/22 22:52 UTC NOAA

Palm Springs, Jacqueline Cochran Regional Airport, CA, United States (KTRM) 33-37-36N 116-09-34W
Jun 22, 2021 - 06:52 PM EDT / 2021.06.22 2252 UTC
Wind: Calm:0
Visibility: 10 mile(s):0
Sky conditions: mostly clear
Temperature: 99.0 F (37.2 C)
Heat index: 98.2 F (36.8 C):1
Dew Point: 57.9 F (14.4 C)
Relative Humidity: 25%
Pressure (altimeter): 29.74 in. Hg (1007 hPa)
ob: KTRM 222252Z AUTO 00000KT 10SM FEW110 37/14 A2974 RMK AO2 SLP075 T03720144
cycle: 23

Station Type Date Time Source
KTRM TAF 2021/06/22 18:22 UTC NOAA

TAF KTRM 221720Z 2218/2318 15011KT P6SM BKN150
FM230200 32008KT P6SM BKN150
FM231100 VRB05KT P6SM BKN120

Example: see airport list